Portada
METAR-TAF:

METAR-TAF

Aeropuertos :

Belgrado, Serbia

Aeropuerto de Belgrado-Nikola Tesla

latitud: 44-49N, longitud: 020-17E, altitud: 96 m

Observación

El informe se hizo hace 37 minutos, a las 22:00 UTC
Viento 9 kt del sur-sureste
Temperatura 29°C
Humedad 45%
Presión 1013 hPa
Visibilidad 10 km o más
sin nubes por debajo de 1500 m y sin presencia de cumulonimbus.

METAR: LYBE 222200Z 16009KT CAVOK 29/16 Q1013 NOSIG

Hora: 00:37 (22:37 UTC)

Pronóstico

El informe se hizo hace 5 horas y 37 minutos, a las 17:00 UTC
Pronóstico válido del 22 a las 18 UTC al 23 a las 18 UTC
Viento 4 kt del este-sureste
Visibilidad 10 km o más
sin nubes por debajo de 1500 m y sin presencia de cumulonimbus.

TAF: LYBE 221700Z 2218/2318 12004KT CAVOK TX37/2314Z TN24/2303Z

Observaciones y pronósticos meteorológicos de más de 4000 aeropuertos (mensajes METAR y TAF).

Los puntos amarillos y rojos representan las estaciones disponibles.

Ponga el ratón en el punto deseado para ver el nombre de la estación.

Haga clic para ver las observaciones y los pronósticos meteorológicos.

Para cambiar el mapa : haga clic en los botones verdes con una cruz de color negro para hacer un zoom, en el botón verde con un guión para alejar o en las flechas verdes para mapas adyacentes.


METAR-TAF: